East Lawrenceville, Pennsylvania
Current Conditions -  °F | °C
As of 8:53 PM on Wednesday 26 Nov 2014 (Local Time) from KELM Reporting Station
Haze Haze  
Wind Chill: 26°   Ceiling: 1400
Heat Index: 32°   Visibility: 6mi
Dew Point: 28°   Wind: 6mph
Humidity: 85%   Direction: 30°NNE
Pressure: 29.97"   Gusts: NA
Location:  41.971°N, 77.1237°W
Report Text: KELM 270153Z 03005KT 6SM BR BKN014 BKN022 OVC042 00/M02 A2997 RMK AO2 SNE47 SLP158 P0000 T00001022
Loading
Personal Weather Stations






























Interactive Weather Map New forecast layout! Learn more

10-Day Weather Forecast

Advertisements
Track Severe Weather on mobile